sensor_id;sensor_type;location;lat;lon;timestamp;P1;durP1;ratioP1;P2;durP2;ratioP2
68647;SDS011;55632;51.962;16.116;2023-11-21T00:03:24;135.20;;;23.02;;
68647;SDS011;55632;51.962;16.116;2023-11-21T00:08:28;124.75;;;29.08;;
68647;SDS011;55632;51.962;16.116;2023-11-21T00:13:29;61.90;;;17.17;;
68647;SDS011;55632;51.962;16.116;2023-11-21T00:18:30;50.65;;;14.93;;
68647;SDS011;55632;51.962;16.116;2023-11-21T00:23:31;40.47;;;15.02;;
68647;SDS011;55632;51.962;16.116;2023-11-21T00:28:31;60.55;;;19.60;;
68647;SDS011;55632;51.962;16.116;2023-11-21T00:33:32;68.57;;;18.50;;
68647;SDS011;55632;51.962;16.116;2023-11-21T00:38:34;75.55;;;23.90;;
68647;SDS011;55632;51.962;16.116;2023-11-21T00:43:34;40.72;;;13.90;;
68647;SDS011;55632;51.962;16.116;2023-11-21T00:48:35;20.10;;;9.63;;
68647;SDS011;55632;51.962;16.116;2023-11-21T00:53:36;9.82;;;5.07;;
68647;SDS011;55632;51.962;16.116;2023-11-21T00:58:37;9.27;;;5.55;;
68647;SDS011;55632;51.962;16.116;2023-11-21T01:03:38;7.07;;;4.85;;
68647;SDS011;55632;51.962;16.116;2023-11-21T01:08:39;8.25;;;3.75;;
68647;SDS011;55632;51.962;16.116;2023-11-21T01:13:40;8.95;;;4.25;;
68647;SDS011;55632;51.962;16.116;2023-11-21T01:18:41;5.38;;;3.08;;
68647;SDS011;55632;51.962;16.116;2023-11-21T01:23:42;4.82;;;3.72;;
68647;SDS011;55632;51.962;16.116;2023-11-21T01:28:44;5.82;;;3.28;;
68647;SDS011;55632;51.962;16.116;2023-11-21T01:33:44;5.78;;;3.40;;
68647;SDS011;55632;51.962;16.116;2023-11-21T01:38:45;5.10;;;3.35;;
68647;SDS011;55632;51.962;16.116;2023-11-21T01:43:46;4.93;;;3.38;;
68647;SDS011;55632;51.962;16.116;2023-11-21T01:48:48;8.73;;;3.38;;
68647;SDS011;55632;51.962;16.116;2023-11-21T01:53:49;4.65;;;3.40;;
68647;SDS011;55632;51.962;16.116;2023-11-21T01:58:51;4.40;;;3.40;;
68647;SDS011;55632;51.962;16.116;2023-11-21T02:03:51;8.50;;;3.40;;
68647;SDS011;55632;51.962;16.116;2023-11-21T02:08:52;5.93;;;3.40;;
68647;SDS011;55632;51.962;16.116;2023-11-21T02:13:53;4.03;;;3.40;;
68647;SDS011;55632;51.962;16.116;2023-11-21T02:18:54;6.45;;;3.70;;
68647;SDS011;55632;51.962;16.116;2023-11-21T02:23:55;7.15;;;4.03;;
68647;SDS011;55632;51.962;16.116;2023-11-21T02:28:56;8.05;;;4.15;;
68647;SDS011;55632;51.962;16.116;2023-11-21T02:33:58;6.50;;;4.38;;
68647;SDS011;55632;51.962;16.116;2023-11-21T02:38:59;6.55;;;3.60;;
68647;SDS011;55632;51.962;16.116;2023-11-21T02:44:00;6.72;;;3.38;;
68647;SDS011;55632;51.962;16.116;2023-11-21T02:49:01;5.53;;;3.35;;
68647;SDS011;55632;51.962;16.116;2023-11-21T02:54:02;6.22;;;3.83;;
68647;SDS011;55632;51.962;16.116;2023-11-21T02:59:08;3.83;;;2.80;;
68647;SDS011;55632;51.962;16.116;2023-11-21T03:04:09;4.30;;;2.80;;
68647;SDS011;55632;51.962;16.116;2023-11-21T03:09:10;2.85;;;2.50;;
68647;SDS011;55632;51.962;16.116;2023-11-21T03:14:12;2.85;;;2.60;;
68647;SDS011;55632;51.962;16.116;2023-11-21T03:19:13;3.42;;;2.72;;
68647;SDS011;55632;51.962;16.116;2023-11-21T03:24:15;4.45;;;3.20;;
68647;SDS011;55632;51.962;16.116;2023-11-21T03:29:20;6.20;;;3.05;;
68647;SDS011;55632;51.962;16.116;2023-11-21T03:34:24;3.10;;;2.58;;
68647;SDS011;55632;51.962;16.116;2023-11-21T03:39:29;2.28;;;2.08;;
68647;SDS011;55632;51.962;16.116;2023-11-21T03:44:29;2.65;;;2.20;;
68647;SDS011;55632;51.962;16.116;2023-11-21T03:49:30;5.10;;;2.67;;
68647;SDS011;55632;51.962;16.116;2023-11-21T03:54:31;17.42;;;5.95;;
68647;SDS011;55632;51.962;16.116;2023-11-21T03:59:32;47.75;;;14.07;;
68647;SDS011;55632;51.962;16.116;2023-11-21T04:04:33;7.93;;;3.40;;
68647;SDS011;55632;51.962;16.116;2023-11-21T04:09:35;4.10;;;2.35;;
68647;SDS011;55632;51.962;16.116;2023-11-21T04:14:36;4.20;;;2.25;;
68647;SDS011;55632;51.962;16.116;2023-11-21T04:19:37;5.03;;;2.00;;
68647;SDS011;55632;51.962;16.116;2023-11-21T04:24:38;3.25;;;2.30;;
68647;SDS011;55632;51.962;16.116;2023-11-21T04:29:38;4.40;;;2.47;;
68647;SDS011;55632;51.962;16.116;2023-11-21T04:34:39;3.55;;;2.40;;
68647;SDS011;55632;51.962;16.116;2023-11-21T04:39:40;8.90;;;4.68;;
68647;SDS011;55632;51.962;16.116;2023-11-21T04:44:41;28.95;;;13.88;;
68647;SDS011;55632;51.962;16.116;2023-11-21T04:49:42;44.05;;;22.58;;
68647;SDS011;55632;51.962;16.116;2023-11-21T04:54:44;53.53;;;26.63;;
68647;SDS011;55632;51.962;16.116;2023-11-21T04:59:45;43.72;;;20.98;;
68647;SDS011;55632;51.962;16.116;2023-11-21T05:04:45;42.92;;;20.85;;
68647;SDS011;55632;51.962;16.116;2023-11-21T05:09:46;42.30;;;21.33;;
68647;SDS011;55632;51.962;16.116;2023-11-21T05:14:47;52.97;;;24.98;;
68647;SDS011;55632;51.962;16.116;2023-11-21T05:19:49;52.95;;;24.48;;
68647;SDS011;55632;51.962;16.116;2023-11-21T05:24:49;44.63;;;22.23;;
68647;SDS011;55632;51.962;16.116;2023-11-21T05:29:50;43.47;;;20.90;;
68647;SDS011;55632;51.962;16.116;2023-11-21T05:34:52;41.40;;;20.55;;
68647;SDS011;55632;51.962;16.116;2023-11-21T05:39:53;46.00;;;20.30;;
68647;SDS011;55632;51.962;16.116;2023-11-21T05:44:56;53.60;;;21.45;;
68647;SDS011;55632;51.962;16.116;2023-11-21T05:49:59;46.60;;;21.20;;
68647;SDS011;55632;51.962;16.116;2023-11-21T05:55:00;38.90;;;19.73;;
68647;SDS011;55632;51.962;16.116;2023-11-21T06:00:04;44.10;;;22.58;;
68647;SDS011;55632;51.962;16.116;2023-11-21T06:05:11;44.63;;;19.73;;
68647;SDS011;55632;51.962;16.116;2023-11-21T06:10:12;47.50;;;23.23;;
68647;SDS011;55632;51.962;16.116;2023-11-21T06:15:14;50.10;;;22.88;;
68647;SDS011;55632;51.962;16.116;2023-11-21T06:20:15;48.30;;;21.90;;
68647;SDS011;55632;51.962;16.116;2023-11-21T06:25:18;61.58;;;24.65;;
68647;SDS011;55632;51.962;16.116;2023-11-21T06:30:20;52.40;;;25.05;;
68647;SDS011;55632;51.962;16.116;2023-11-21T06:35:21;56.17;;;24.35;;
68647;SDS011;55632;51.962;16.116;2023-11-21T06:40:22;62.53;;;29.92;;
68647;SDS011;55632;51.962;16.116;2023-11-21T06:45:23;79.15;;;34.40;;
68647;SDS011;55632;51.962;16.116;2023-11-21T06:50:24;53.78;;;24.05;;
68647;SDS011;55632;51.962;16.116;2023-11-21T06:55:25;62.08;;;27.00;;
68647;SDS011;55632;51.962;16.116;2023-11-21T07:00:26;57.92;;;25.23;;
68647;SDS011;55632;51.962;16.116;2023-11-21T07:05:29;51.88;;;23.35;;
68647;SDS011;55632;51.962;16.116;2023-11-21T07:10:31;58.80;;;24.02;;
68647;SDS011;55632;51.962;16.116;2023-11-21T07:15:31;49.45;;;24.33;;
68647;SDS011;55632;51.962;16.116;2023-11-21T07:20:33;52.47;;;26.70;;
68647;SDS011;55632;51.962;16.116;2023-11-21T07:25:33;53.72;;;23.65;;
68647;SDS011;55632;51.962;16.116;2023-11-21T07:30:34;38.00;;;20.48;;
68647;SDS011;55632;51.962;16.116;2023-11-21T07:35:35;30.00;;;17.30;;
68647;SDS011;55632;51.962;16.116;2023-11-21T07:40:37;27.83;;;15.43;;
68647;SDS011;55632;51.962;16.116;2023-11-21T07:45:37;26.23;;;15.38;;
68647;SDS011;55632;51.962;16.116;2023-11-21T07:55:39;31.30;;;20.77;;
68647;SDS011;55632;51.962;16.116;2023-11-21T08:05:40;13.98;;;9.75;;
68647;SDS011;55632;51.962;16.116;2023-11-21T08:10:41;25.13;;;17.90;;
68647;SDS011;55632;51.962;16.116;2023-11-21T08:15:42;18.08;;;11.00;;
68647;SDS011;55632;51.962;16.116;2023-11-21T08:20:46;13.20;;;8.32;;
68647;SDS011;55632;51.962;16.116;2023-11-21T08:25:49;12.02;;;8.07;;
68647;SDS011;55632;51.962;16.116;2023-11-21T08:30:50;14.32;;;8.57;;
68647;SDS011;55632;51.962;16.116;2023-11-21T08:35:57;12.95;;;8.23;;
68647;SDS011;55632;51.962;16.116;2023-11-21T08:40:58;12.68;;;8.13;;
68647;SDS011;55632;51.962;16.116;2023-11-21T08:45:59;11.45;;;8.32;;
68647;SDS011;55632;51.962;16.116;2023-11-21T08:50:59;16.67;;;10.00;;
68647;SDS011;55632;51.962;16.116;2023-11-21T09:01:01;15.80;;;9.20;;
68647;SDS011;55632;51.962;16.116;2023-11-21T09:11:04;17.15;;;10.30;;
68647;SDS011;55632;51.962;16.116;2023-11-21T09:16:05;16.65;;;11.30;;
68647;SDS011;55632;51.962;16.116;2023-11-21T09:21:06;19.52;;;11.85;;
68647;SDS011;55632;51.962;16.116;2023-11-21T09:26:09;15.07;;;8.93;;
68647;SDS011;55632;51.962;16.116;2023-11-21T09:31:10;17.13;;;9.95;;
68647;SDS011;55632;51.962;16.116;2023-11-21T09:36:12;10.65;;;6.82;;
68647;SDS011;55632;51.962;16.116;2023-11-21T09:41:19;8.80;;;5.90;;
68647;SDS011;55632;51.962;16.116;2023-11-21T09:46:24;11.32;;;7.70;;
68647;SDS011;55632;51.962;16.116;2023-11-21T09:51:28;194.52;;;66.22;;
68647;SDS011;55632;51.962;16.116;2023-11-21T09:56:33;155.45;;;54.35;;
68647;SDS011;55632;51.962;16.116;2023-11-21T10:11:41;12.50;;;8.73;;
68647;SDS011;55632;51.962;16.116;2023-11-21T10:16:43;14.95;;;7.90;;
68647;SDS011;55632;51.962;16.116;2023-11-21T10:21:47;26.13;;;15.00;;
68647;SDS011;55632;51.962;16.116;2023-11-21T10:31:49;39.10;;;20.37;;
68647;SDS011;55632;51.962;16.116;2023-11-21T10:36:51;20.88;;;14.27;;
68647;SDS011;55632;51.962;16.116;2023-11-21T10:46:53;29.20;;;13.85;;
68647;SDS011;55632;51.962;16.116;2023-11-21T10:51:59;23.73;;;12.60;;
68647;SDS011;55632;51.962;16.116;2023-11-21T11:02:02;26.05;;;15.90;;
68647;SDS011;55632;51.962;16.116;2023-11-21T11:07:21;20.70;;;12.63;;
68647;SDS011;55632;51.962;16.116;2023-11-21T11:12:26;36.97;;;18.88;;
68647;SDS011;55632;51.962;16.116;2023-11-21T11:17:28;10.90;;;7.60;;
68647;SDS011;55632;51.962;16.116;2023-11-21T11:22:35;27.58;;;16.35;;
68647;SDS011;55632;51.962;16.116;2023-11-21T11:27:48;17.35;;;11.20;;
68647;SDS011;55632;51.962;16.116;2023-11-21T11:33:17;31.58;;;18.35;;
68647;SDS011;55632;51.962;16.116;2023-11-21T11:38:34;17.90;;;13.40;;
68647;SDS011;55632;51.962;16.116;2023-11-21T11:43:38;18.02;;;11.77;;
68647;SDS011;55632;51.962;16.116;2023-11-21T11:48:45;16.15;;;10.23;;
68647;SDS011;55632;51.962;16.116;2023-11-21T11:58:47;20.13;;;11.87;;
68647;SDS011;55632;51.962;16.116;2023-11-21T12:09:18;20.55;;;12.52;;
68647;SDS011;55632;51.962;16.116;2023-11-21T12:14:19;23.23;;;15.90;;
68647;SDS011;55632;51.962;16.116;2023-11-21T12:19:20;22.55;;;14.52;;
68647;SDS011;55632;51.962;16.116;2023-11-21T12:29:24;18.80;;;15.30;;
68647;SDS011;55632;51.962;16.116;2023-11-21T12:34:25;22.17;;;14.88;;
68647;SDS011;55632;51.962;16.116;2023-11-21T12:44:27;19.88;;;14.23;;
68647;SDS011;55632;51.962;16.116;2023-11-21T12:54:28;26.45;;;17.60;;
68647;SDS011;55632;51.962;16.116;2023-11-21T12:59:31;38.40;;;24.40;;
68647;SDS011;55632;51.962;16.116;2023-11-21T13:04:32;21.23;;;13.88;;
68647;SDS011;55632;51.962;16.116;2023-11-21T13:09:35;26.73;;;15.95;;
68647;SDS011;55632;51.962;16.116;2023-11-21T13:19:36;23.70;;;15.25;;
68647;SDS011;55632;51.962;16.116;2023-11-21T13:29:37;24.75;;;15.02;;
68647;SDS011;55632;51.962;16.116;2023-11-21T13:39:39;31.38;;;18.20;;
68647;SDS011;55632;51.962;16.116;2023-11-21T13:44:44;31.75;;;16.17;;
68647;SDS011;55632;51.962;16.116;2023-11-21T13:49:48;20.27;;;12.70;;
68647;SDS011;55632;51.962;16.116;2023-11-21T13:54:49;19.23;;;11.77;;
68647;SDS011;55632;51.962;16.116;2023-11-21T13:59:50;21.15;;;13.73;;
68647;SDS011;55632;51.962;16.116;2023-11-21T14:04:52;44.90;;;27.83;;
68647;SDS011;55632;51.962;16.116;2023-11-21T14:09:56;23.50;;;13.82;;
68647;SDS011;55632;51.962;16.116;2023-11-21T14:14:58;18.65;;;15.60;;
68647;SDS011;55632;51.962;16.116;2023-11-21T14:20:01;11.85;;;8.15;;
68647;SDS011;55632;51.962;16.116;2023-11-21T14:25:05;19.42;;;8.55;;
68647;SDS011;55632;51.962;16.116;2023-11-21T14:30:06;13.43;;;9.23;;
68647;SDS011;55632;51.962;16.116;2023-11-21T14:35:08;15.40;;;10.13;;
68647;SDS011;55632;51.962;16.116;2023-11-21T14:45:10;20.50;;;12.15;;
68647;SDS011;55632;51.962;16.116;2023-11-21T14:50:12;21.25;;;12.90;;
68647;SDS011;55632;51.962;16.116;2023-11-21T14:55:32;18.05;;;11.45;;
68647;SDS011;55632;51.962;16.116;2023-11-21T15:00:43;20.15;;;13.02;;
68647;SDS011;55632;51.962;16.116;2023-11-21T15:05:48;21.92;;;13.93;;
68647;SDS011;55632;51.962;16.116;2023-11-21T15:10:49;25.60;;;13.35;;
68647;SDS011;55632;51.962;16.116;2023-11-21T15:15:54;22.13;;;14.15;;
68647;SDS011;55632;51.962;16.116;2023-11-21T15:25:55;23.80;;;13.10;;
68647;SDS011;55632;51.962;16.116;2023-11-21T15:30:58;27.88;;;14.90;;
68647;SDS011;55632;51.962;16.116;2023-11-21T15:40:59;23.20;;;12.95;;
68647;SDS011;55632;51.962;16.116;2023-11-21T15:51:06;23.77;;;14.15;;
68647;SDS011;55632;51.962;16.116;2023-11-21T15:56:13;23.23;;;12.38;;
68647;SDS011;55632;51.962;16.116;2023-11-21T16:06:15;19.42;;;10.75;;
68647;SDS011;55632;51.962;16.116;2023-11-21T16:16:19;29.27;;;15.32;;
68647;SDS011;55632;51.962;16.116;2023-11-21T16:21:21;27.65;;;14.43;;
68647;SDS011;55632;51.962;16.116;2023-11-21T16:26:23;27.08;;;14.02;;
68647;SDS011;55632;51.962;16.116;2023-11-21T16:36:25;25.70;;;14.32;;
68647;SDS011;55632;51.962;16.116;2023-11-21T16:46:27;37.22;;;18.27;;
68647;SDS011;55632;51.962;16.116;2023-11-21T16:56:28;26.23;;;14.55;;
68647;SDS011;55632;51.962;16.116;2023-11-21T17:01:29;30.45;;;16.45;;
68647;SDS011;55632;51.962;16.116;2023-11-21T17:06:30;27.30;;;16.02;;
68647;SDS011;55632;51.962;16.116;2023-11-21T17:16:32;58.40;;;32.58;;
68647;SDS011;55632;51.962;16.116;2023-11-21T17:26:34;32.30;;;16.85;;
68647;SDS011;55632;51.962;16.116;2023-11-21T17:31:35;38.03;;;19.08;;
68647;SDS011;55632;51.962;16.116;2023-11-21T17:36:39;31.88;;;19.00;;
68647;SDS011;55632;51.962;16.116;2023-11-21T17:41:41;36.13;;;19.20;;
68647;SDS011;55632;51.962;16.116;2023-11-21T17:46:42;37.10;;;19.65;;
68647;SDS011;55632;51.962;16.116;2023-11-21T17:56:43;34.47;;;19.60;;
68647;SDS011;55632;51.962;16.116;2023-11-21T18:11:47;32.70;;;19.52;;
68647;SDS011;55632;51.962;16.116;2023-11-21T18:16:49;32.95;;;17.75;;
68647;SDS011;55632;51.962;16.116;2023-11-21T18:21:50;32.22;;;19.20;;
68647;SDS011;55632;51.962;16.116;2023-11-21T18:26:51;27.77;;;17.40;;
68647;SDS011;55632;51.962;16.116;2023-11-21T18:31:51;34.25;;;18.67;;
68647;SDS011;55632;51.962;16.116;2023-11-21T18:36:52;36.60;;;19.05;;
68647;SDS011;55632;51.962;16.116;2023-11-21T18:41:53;35.00;;;19.00;;
68647;SDS011;55632;51.962;16.116;2023-11-21T18:46:55;31.38;;;17.80;;
68647;SDS011;55632;51.962;16.116;2023-11-21T18:51:56;39.60;;;20.48;;
68647;SDS011;55632;51.962;16.116;2023-11-21T18:56:57;43.75;;;20.77;;
68647;SDS011;55632;51.962;16.116;2023-11-21T19:07:00;52.17;;;24.60;;
68647;SDS011;55632;51.962;16.116;2023-11-21T19:12:02;39.47;;;20.20;;
68647;SDS011;55632;51.962;16.116;2023-11-21T19:17:04;34.22;;;18.98;;
68647;SDS011;55632;51.962;16.116;2023-11-21T19:27:05;45.55;;;18.08;;
68647;SDS011;55632;51.962;16.116;2023-11-21T19:32:06;32.97;;;17.17;;
68647;SDS011;55632;51.962;16.116;2023-11-21T19:37:08;35.03;;;18.45;;
68647;SDS011;55632;51.962;16.116;2023-11-21T19:42:14;40.78;;;18.65;;
68647;SDS011;55632;51.962;16.116;2023-11-21T19:52:16;34.03;;;19.05;;
68647;SDS011;55632;51.962;16.116;2023-11-21T19:57:17;42.33;;;19.38;;
68647;SDS011;55632;51.962;16.116;2023-11-21T20:02:18;31.25;;;17.20;;
68647;SDS011;55632;51.962;16.116;2023-11-21T20:07:19;27.98;;;16.23;;
68647;SDS011;55632;51.962;16.116;2023-11-21T20:12:21;33.47;;;17.30;;
68647;SDS011;55632;51.962;16.116;2023-11-21T20:22:24;32.50;;;17.73;;
68647;SDS011;55632;51.962;16.116;2023-11-21T20:27:25;31.55;;;18.40;;
68647;SDS011;55632;51.962;16.116;2023-11-21T20:32:26;36.20;;;17.85;;
68647;SDS011;55632;51.962;16.116;2023-11-21T20:42:28;33.53;;;17.60;;
68647;SDS011;55632;51.962;16.116;2023-11-21T20:47:29;29.27;;;16.95;;
68647;SDS011;55632;51.962;16.116;2023-11-21T20:52:32;27.83;;;16.15;;
68647;SDS011;55632;51.962;16.116;2023-11-21T20:57:36;36.28;;;16.65;;
68647;SDS011;55632;51.962;16.116;2023-11-21T21:07:38;25.88;;;14.85;;
68647;SDS011;55632;51.962;16.116;2023-11-21T21:12:39;29.20;;;15.60;;
68647;SDS011;55632;51.962;16.116;2023-11-21T21:17:41;28.58;;;14.93;;
68647;SDS011;55632;51.962;16.116;2023-11-21T21:22:43;29.00;;;15.25;;
68647;SDS011;55632;51.962;16.116;2023-11-21T21:27:44;24.63;;;13.75;;
68647;SDS011;55632;51.962;16.116;2023-11-21T21:37:47;25.20;;;12.70;;
68647;SDS011;55632;51.962;16.116;2023-11-21T21:42:49;21.30;;;12.48;;
68647;SDS011;55632;51.962;16.116;2023-11-21T21:52:51;21.17;;;11.23;;
68647;SDS011;55632;51.962;16.116;2023-11-21T21:57:53;15.82;;;10.45;;
68647;SDS011;55632;51.962;16.116;2023-11-21T22:07:55;17.38;;;9.25;;
68647;SDS011;55632;51.962;16.116;2023-11-21T22:12:56;19.38;;;10.65;;
68647;SDS011;55632;51.962;16.116;2023-11-21T22:17:57;19.58;;;9.48;;
68647;SDS011;55632;51.962;16.116;2023-11-21T22:22:59;19.83;;;9.77;;
68647;SDS011;55632;51.962;16.116;2023-11-21T22:28:00;15.68;;;9.30;;
68647;SDS011;55632;51.962;16.116;2023-11-21T22:38:01;13.43;;;8.13;;
68647;SDS011;55632;51.962;16.116;2023-11-21T22:43:02;19.02;;;8.77;;
68647;SDS011;55632;51.962;16.116;2023-11-21T22:53:05;15.52;;;8.70;;
68647;SDS011;55632;51.962;16.116;2023-11-21T22:58:06;17.48;;;9.25;;
68647;SDS011;55632;51.962;16.116;2023-11-21T23:03:07;15.38;;;8.68;;
68647;SDS011;55632;51.962;16.116;2023-11-21T23:08:08;14.30;;;7.88;;
68647;SDS011;55632;51.962;16.116;2023-11-21T23:13:10;13.10;;;8.88;;
68647;SDS011;55632;51.962;16.116;2023-11-21T23:23:11;16.20;;;7.38;;
68647;SDS011;55632;51.962;16.116;2023-11-21T23:28:12;16.75;;;9.30;;
68647;SDS011;55632;51.962;16.116;2023-11-21T23:33:13;21.30;;;9.27;;
68647;SDS011;55632;51.962;16.116;2023-11-21T23:38:14;12.55;;;8.13;;
68647;SDS011;55632;51.962;16.116;2023-11-21T23:43:16;13.45;;;8.98;;
68647;SDS011;55632;51.962;16.116;2023-11-21T23:48:19;19.17;;;8.18;;
68647;SDS011;55632;51.962;16.116;2023-11-21T23:53:21;13.70;;;7.70;;
68647;SDS011;55632;51.962;16.116;2023-11-21T23:58:21;13.70;;;8.45;;
